sensor_id;sensor_type;location;lat;lon;timestamp;P1;durP1;ratioP1;P2;durP2;ratioP2
48805;SDS011;34625;47.176;27.548;2023-02-22T00:00:16;3.03;;;1.80;;
48805;SDS011;34625;47.176;27.548;2023-02-22T00:02:44;5.78;;;2.10;;
48805;SDS011;34625;47.176;27.548;2023-02-22T00:05:11;6.50;;;1.67;;
48805;SDS011;34625;47.176;27.548;2023-02-22T00:07:41;3.70;;;1.95;;
48805;SDS011;34625;47.176;27.548;2023-02-22T00:10:09;3.53;;;1.90;;
48805;SDS011;34625;47.176;27.548;2023-02-22T00:12:41;4.10;;;1.45;;
48805;SDS011;34625;47.176;27.548;2023-02-22T00:15:08;5.10;;;2.00;;
48805;SDS011;34625;47.176;27.548;2023-02-22T00:17:34;2.60;;;1.55;;
48805;SDS011;34625;47.176;27.548;2023-02-22T00:20:01;2.08;;;1.55;;
48805;SDS011;34625;47.176;27.548;2023-02-22T00:22:30;4.25;;;1.85;;
48805;SDS011;34625;47.176;27.548;2023-02-22T00:24:56;2.90;;;1.55;;
48805;SDS011;34625;47.176;27.548;2023-02-22T00:27:22;2.30;;;1.73;;
48805;SDS011;34625;47.176;27.548;2023-02-22T00:29:48;3.22;;;1.42;;
48805;SDS011;34625;47.176;27.548;2023-02-22T00:32:14;2.72;;;1.63;;
48805;SDS011;34625;47.176;27.548;2023-02-22T00:34:40;6.90;;;1.80;;
48805;SDS011;34625;47.176;27.548;2023-02-22T00:37:09;3.97;;;1.83;;
48805;SDS011;34625;47.176;27.548;2023-02-22T00:39:35;3.35;;;1.58;;
48805;SDS011;34625;47.176;27.548;2023-02-22T00:42:01;2.17;;;1.33;;
48805;SDS011;34625;47.176;27.548;2023-02-22T00:44:28;3.70;;;1.70;;
48805;SDS011;34625;47.176;27.548;2023-02-22T00:46:54;4.30;;;1.58;;
48805;SDS011;34625;47.176;27.548;2023-02-22T00:49:20;7.28;;;1.48;;
48805;SDS011;34625;47.176;27.548;2023-02-22T00:51:48;3.53;;;1.38;;
48805;SDS011;34625;47.176;27.548;2023-02-22T00:54:14;3.20;;;1.20;;
48805;SDS011;34625;47.176;27.548;2023-02-22T00:56:42;2.33;;;1.65;;
48805;SDS011;34625;47.176;27.548;2023-02-22T00:59:08;4.47;;;1.60;;
48805;SDS011;34625;47.176;27.548;2023-02-22T01:01:34;1.50;;;1.40;;
48805;SDS011;34625;47.176;27.548;2023-02-22T01:04:00;4.88;;;1.73;;
48805;SDS011;34625;47.176;27.548;2023-02-22T01:06:26;4.13;;;1.20;;
48805;SDS011;34625;47.176;27.548;2023-02-22T01:08:53;4.45;;;1.80;;
48805;SDS011;34625;47.176;27.548;2023-02-22T01:11:19;4.13;;;1.38;;
48805;SDS011;34625;47.176;27.548;2023-02-22T01:13:46;3.67;;;1.20;;
48805;SDS011;34625;47.176;27.548;2023-02-22T01:16:12;4.60;;;1.60;;
48805;SDS011;34625;47.176;27.548;2023-02-22T01:18:38;2.22;;;1.35;;
48805;SDS011;34625;47.176;27.548;2023-02-22T01:21:05;1.35;;;1.17;;
48805;SDS011;34625;47.176;27.548;2023-02-22T01:23:33;2.38;;;1.35;;
48805;SDS011;34625;47.176;27.548;2023-02-22T01:25:59;3.83;;;1.40;;
48805;SDS011;34625;47.176;27.548;2023-02-22T01:28:28;3.08;;;1.70;;
48805;SDS011;34625;47.176;27.548;2023-02-22T01:30:54;3.58;;;1.40;;
48805;SDS011;34625;47.176;27.548;2023-02-22T01:33:22;2.65;;;1.05;;
48805;SDS011;34625;47.176;27.548;2023-02-22T01:35:48;4.55;;;1.38;;
48805;SDS011;34625;47.176;27.548;2023-02-22T01:38:15;3.88;;;1.33;;
48805;SDS011;34625;47.176;27.548;2023-02-22T01:40:45;3.25;;;1.27;;
48805;SDS011;34625;47.176;27.548;2023-02-22T01:45:47;3.17;;;1.23;;
48805;SDS011;34625;47.176;27.548;2023-02-22T01:51:01;2.47;;;1.30;;
48805;SDS011;34625;47.176;27.548;2023-02-22T01:53:44;2.67;;;1.33;;
48805;SDS011;34625;47.176;27.548;2023-02-22T01:56:15;1.98;;;1.23;;
48805;SDS011;34625;47.176;27.548;2023-02-22T01:58:44;2.88;;;1.63;;
48805;SDS011;34625;47.176;27.548;2023-02-22T02:01:14;3.13;;;1.35;;
48805;SDS011;34625;47.176;27.548;2023-02-22T02:03:42;3.22;;;1.10;;
48805;SDS011;34625;47.176;27.548;2023-02-22T02:06:11;2.85;;;1.42;;
48805;SDS011;34625;47.176;27.548;2023-02-22T02:08:41;3.08;;;1.50;;
48805;SDS011;34625;47.176;27.548;2023-02-22T02:11:14;2.47;;;1.40;;
48805;SDS011;34625;47.176;27.548;2023-02-22T02:13:43;3.75;;;1.65;;
48805;SDS011;34625;47.176;27.548;2023-02-22T02:16:09;5.43;;;1.30;;
48805;SDS011;34625;47.176;27.548;2023-02-22T02:18:35;3.28;;;1.40;;
48805;SDS011;34625;47.176;27.548;2023-02-22T02:27:02;4.78;;;1.50;;
48805;SDS011;34625;47.176;27.548;2023-02-22T02:35:13;5.95;;;1.55;;
48805;SDS011;34625;47.176;27.548;2023-02-22T02:43:14;2.55;;;1.30;;
48805;SDS011;34625;47.176;27.548;2023-02-22T02:48:44;3.92;;;1.70;;
48805;SDS011;34625;47.176;27.548;2023-02-22T02:51:19;3.55;;;1.50;;
48805;SDS011;34625;47.176;27.548;2023-02-22T02:53:46;3.47;;;1.50;;
48805;SDS011;34625;47.176;27.548;2023-02-22T02:56:15;5.43;;;1.50;;
48805;SDS011;34625;47.176;27.548;2023-02-22T02:58:46;4.97;;;1.67;;
48805;SDS011;34625;47.176;27.548;2023-02-22T03:12:53;3.95;;;1.58;;
48805;SDS011;34625;47.176;27.548;2023-02-22T03:15:41;5.15;;;1.85;;
48805;SDS011;34625;47.176;27.548;2023-02-22T03:18:16;5.38;;;1.98;;
48805;SDS011;34625;47.176;27.548;2023-02-22T03:24:03;3.50;;;1.90;;
48805;SDS011;34625;47.176;27.548;2023-02-22T03:26:37;6.20;;;1.98;;
48805;SDS011;34625;47.176;27.548;2023-02-22T03:29:44;2.92;;;1.25;;
48805;SDS011;34625;47.176;27.548;2023-02-22T03:32:15;5.90;;;2.00;;
48805;SDS011;34625;47.176;27.548;2023-02-22T03:34:52;7.63;;;1.95;;
48805;SDS011;34625;47.176;27.548;2023-02-22T03:37:29;4.35;;;1.30;;
48805;SDS011;34625;47.176;27.548;2023-02-22T03:39:59;6.15;;;1.75;;
48805;SDS011;34625;47.176;27.548;2023-02-22T03:42:31;8.10;;;1.70;;
48805;SDS011;34625;47.176;27.548;2023-02-22T03:45:03;4.40;;;1.50;;
48805;SDS011;34625;47.176;27.548;2023-02-22T03:47:34;7.68;;;2.00;;
48805;SDS011;34625;47.176;27.548;2023-02-22T03:50:11;3.65;;;1.23;;
48805;SDS011;34625;47.176;27.548;2023-02-22T03:52:41;3.35;;;1.40;;
48805;SDS011;34625;47.176;27.548;2023-02-22T03:55:14;3.17;;;1.70;;
48805;SDS011;34625;47.176;27.548;2023-02-22T03:57:44;4.53;;;1.55;;
48805;SDS011;34625;47.176;27.548;2023-02-22T04:00:17;4.68;;;1.85;;
48805;SDS011;34625;47.176;27.548;2023-02-22T04:02:47;5.70;;;1.50;;
48805;SDS011;34625;47.176;27.548;2023-02-22T04:05:17;4.28;;;2.00;;
48805;SDS011;34625;47.176;27.548;2023-02-22T04:07:43;5.40;;;1.67;;
48805;SDS011;34625;47.176;27.548;2023-02-22T04:10:11;8.80;;;1.90;;
48805;SDS011;34625;47.176;27.548;2023-02-22T04:12:41;4.32;;;1.85;;
48805;SDS011;34625;47.176;27.548;2023-02-22T04:15:07;4.10;;;1.73;;
48805;SDS011;34625;47.176;27.548;2023-02-22T04:17:37;11.02;;;1.48;;
48805;SDS011;34625;47.176;27.548;2023-02-22T04:20:04;4.05;;;1.60;;
48805;SDS011;34625;47.176;27.548;2023-02-22T04:22:42;5.07;;;2.00;;
48805;SDS011;34625;47.176;27.548;2023-02-22T04:25:08;8.25;;;2.22;;
48805;SDS011;34625;47.176;27.548;2023-02-22T04:27:34;3.65;;;1.60;;
48805;SDS011;34625;47.176;27.548;2023-02-22T04:30:00;7.28;;;2.05;;
48805;SDS011;34625;47.176;27.548;2023-02-22T04:32:28;8.20;;;2.03;;
48805;SDS011;34625;47.176;27.548;2023-02-22T04:34:55;6.22;;;1.92;;
48805;SDS011;34625;47.176;27.548;2023-02-22T04:37:21;3.13;;;1.60;;
48805;SDS011;34625;47.176;27.548;2023-02-22T04:39:47;4.93;;;1.90;;
48805;SDS011;34625;47.176;27.548;2023-02-22T04:42:13;4.82;;;1.20;;
48805;SDS011;34625;47.176;27.548;2023-02-22T04:44:40;6.13;;;2.20;;
48805;SDS011;34625;47.176;27.548;2023-02-22T04:47:06;4.15;;;1.67;;
48805;SDS011;34625;47.176;27.548;2023-02-22T04:49:32;2.72;;;1.70;;
48805;SDS011;34625;47.176;27.548;2023-02-22T04:51:58;4.95;;;1.98;;
48805;SDS011;34625;47.176;27.548;2023-02-22T04:54:32;4.93;;;1.70;;
48805;SDS011;34625;47.176;27.548;2023-02-22T04:56:58;7.88;;;1.95;;
48805;SDS011;34625;47.176;27.548;2023-02-22T04:59:23;3.75;;;2.10;;
48805;SDS011;34625;47.176;27.548;2023-02-22T05:01:58;5.93;;;1.92;;
48805;SDS011;34625;47.176;27.548;2023-02-22T05:04:27;3.00;;;1.40;;
48805;SDS011;34625;47.176;27.548;2023-02-22T05:06:54;8.70;;;2.35;;
48805;SDS011;34625;47.176;27.548;2023-02-22T05:09:19;5.30;;;1.92;;
48805;SDS011;34625;47.176;27.548;2023-02-22T05:11:45;4.25;;;1.73;;
48805;SDS011;34625;47.176;27.548;2023-02-22T05:14:11;8.45;;;2.88;;
48805;SDS011;34625;47.176;27.548;2023-02-22T05:16:37;4.55;;;2.35;;
48805;SDS011;34625;47.176;27.548;2023-02-22T05:19:03;4.50;;;1.70;;
48805;SDS011;34625;47.176;27.548;2023-02-22T05:21:29;6.13;;;2.05;;
48805;SDS011;34625;47.176;27.548;2023-02-22T05:23:55;4.88;;;2.00;;
48805;SDS011;34625;47.176;27.548;2023-02-22T05:26:21;6.95;;;2.63;;
48805;SDS011;34625;47.176;27.548;2023-02-22T05:28:47;5.85;;;2.83;;
48805;SDS011;34625;47.176;27.548;2023-02-22T05:31:13;6.53;;;2.70;;
48805;SDS011;34625;47.176;27.548;2023-02-22T05:33:39;4.88;;;2.60;;
48805;SDS011;34625;47.176;27.548;2023-02-22T05:36:06;3.30;;;2.45;;
48805;SDS011;34625;47.176;27.548;2023-02-22T05:38:32;5.85;;;3.22;;
48805;SDS011;34625;47.176;27.548;2023-02-22T05:40:59;7.45;;;3.20;;
48805;SDS011;34625;47.176;27.548;2023-02-22T05:43:25;8.20;;;3.58;;
48805;SDS011;34625;47.176;27.548;2023-02-22T05:45:51;4.50;;;2.55;;
48805;SDS011;34625;47.176;27.548;2023-02-22T05:48:17;5.18;;;2.20;;
48805;SDS011;34625;47.176;27.548;2023-02-22T05:50:43;4.60;;;2.17;;
48805;SDS011;34625;47.176;27.548;2023-02-22T05:53:09;4.20;;;2.20;;
48805;SDS011;34625;47.176;27.548;2023-02-22T05:55:35;7.10;;;2.42;;
48805;SDS011;34625;47.176;27.548;2023-02-22T05:58:01;7.68;;;2.25;;
48805;SDS011;34625;47.176;27.548;2023-02-22T06:00:30;7.05;;;1.95;;
48805;SDS011;34625;47.176;27.548;2023-02-22T06:02:57;7.20;;;2.33;;
48805;SDS011;34625;47.176;27.548;2023-02-22T06:05:30;8.60;;;2.50;;
48805;SDS011;34625;47.176;27.548;2023-02-22T06:07:57;5.57;;;2.58;;
48805;SDS011;34625;47.176;27.548;2023-02-22T06:10:24;6.20;;;2.33;;
48805;SDS011;34625;47.176;27.548;2023-02-22T06:12:51;5.95;;;2.47;;
48805;SDS011;34625;47.176;27.548;2023-02-22T06:15:18;4.47;;;1.92;;
48805;SDS011;34625;47.176;27.548;2023-02-22T06:17:46;3.28;;;1.83;;
48805;SDS011;34625;47.176;27.548;2023-02-22T06:20:13;8.80;;;2.40;;
48805;SDS011;34625;47.176;27.548;2023-02-22T06:22:41;8.32;;;2.15;;
48805;SDS011;34625;47.176;27.548;2023-02-22T06:25:07;6.88;;;2.22;;
48805;SDS011;34625;47.176;27.548;2023-02-22T06:27:34;6.10;;;2.05;;
48805;SDS011;34625;47.176;27.548;2023-02-22T06:30:01;5.10;;;2.08;;
48805;SDS011;34625;47.176;27.548;2023-02-22T06:32:27;5.88;;;2.03;;
48805;SDS011;34625;47.176;27.548;2023-02-22T06:34:53;3.83;;;1.73;;
48805;SDS011;34625;47.176;27.548;2023-02-22T06:37:19;8.07;;;3.00;;
48805;SDS011;34625;47.176;27.548;2023-02-22T06:39:45;11.95;;;2.90;;
48805;SDS011;34625;47.176;27.548;2023-02-22T06:42:11;7.95;;;2.38;;
48805;SDS011;34625;47.176;27.548;2023-02-22T06:44:37;6.82;;;2.70;;
48805;SDS011;34625;47.176;27.548;2023-02-22T06:47:03;7.05;;;2.42;;
48805;SDS011;34625;47.176;27.548;2023-02-22T06:49:29;5.57;;;2.70;;
48805;SDS011;34625;47.176;27.548;2023-02-22T06:51:55;8.23;;;2.55;;
48805;SDS011;34625;47.176;27.548;2023-02-22T06:54:21;8.32;;;2.45;;
48805;SDS011;34625;47.176;27.548;2023-02-22T06:56:47;8.68;;;2.70;;
48805;SDS011;34625;47.176;27.548;2023-02-22T06:59:14;6.03;;;2.90;;
48805;SDS011;34625;47.176;27.548;2023-02-22T07:01:41;6.43;;;3.10;;
48805;SDS011;34625;47.176;27.548;2023-02-22T07:04:07;5.60;;;2.35;;
48805;SDS011;34625;47.176;27.548;2023-02-22T07:06:33;7.30;;;2.00;;
48805;SDS011;34625;47.176;27.548;2023-02-22T07:09:00;3.40;;;1.90;;
48805;SDS011;34625;47.176;27.548;2023-02-22T07:11:27;7.30;;;3.67;;
48805;SDS011;34625;47.176;27.548;2023-02-22T07:13:53;6.68;;;2.92;;
48805;SDS011;34625;47.176;27.548;2023-02-22T07:16:19;5.45;;;2.92;;
48805;SDS011;34625;47.176;27.548;2023-02-22T07:18:45;4.47;;;1.92;;
48805;SDS011;34625;47.176;27.548;2023-02-22T07:21:13;5.55;;;2.22;;
48805;SDS011;34625;47.176;27.548;2023-02-22T07:23:39;11.98;;;2.88;;
48805;SDS011;34625;47.176;27.548;2023-02-22T07:26:06;6.80;;;2.55;;
48805;SDS011;34625;47.176;27.548;2023-02-22T07:28:32;5.57;;;2.50;;
48805;SDS011;34625;47.176;27.548;2023-02-22T07:30:58;6.07;;;2.67;;
48805;SDS011;34625;47.176;27.548;2023-02-22T07:33:25;7.68;;;2.53;;
48805;SDS011;34625;47.176;27.548;2023-02-22T07:35:51;8.57;;;2.40;;
48805;SDS011;34625;47.176;27.548;2023-02-22T07:38:18;4.55;;;2.55;;
48805;SDS011;34625;47.176;27.548;2023-02-22T07:40:45;6.20;;;2.28;;
48805;SDS011;34625;47.176;27.548;2023-02-22T07:43:13;4.15;;;1.98;;
48805;SDS011;34625;47.176;27.548;2023-02-22T07:45:41;6.70;;;2.53;;
48805;SDS011;34625;47.176;27.548;2023-02-22T07:48:08;7.22;;;2.28;;
48805;SDS011;34625;47.176;27.548;2023-02-22T07:50:36;3.75;;;2.03;;
48805;SDS011;34625;47.176;27.548;2023-02-22T07:53:04;2.83;;;1.70;;
48805;SDS011;34625;47.176;27.548;2023-02-22T07:55:31;4.60;;;2.30;;
48805;SDS011;34625;47.176;27.548;2023-02-22T07:57:59;6.88;;;2.88;;
48805;SDS011;34625;47.176;27.548;2023-02-22T08:00:31;8.35;;;3.28;;
48805;SDS011;34625;47.176;27.548;2023-02-22T08:03:03;5.97;;;3.10;;
48805;SDS011;34625;47.176;27.548;2023-02-22T08:05:31;12.23;;;3.35;;
48805;SDS011;34625;47.176;27.548;2023-02-22T08:07:58;11.85;;;3.63;;
48805;SDS011;34625;47.176;27.548;2023-02-22T08:10:24;11.70;;;3.90;;
48805;SDS011;34625;47.176;27.548;2023-02-22T08:12:51;13.10;;;3.42;;
48805;SDS011;34625;47.176;27.548;2023-02-22T08:15:20;11.07;;;3.83;;
48805;SDS011;34625;47.176;27.548;2023-02-22T08:17:49;8.45;;;3.08;;
48805;SDS011;34625;47.176;27.548;2023-02-22T08:20:15;10.52;;;3.60;;
48805;SDS011;34625;47.176;27.548;2023-02-22T08:22:42;8.25;;;3.08;;
48805;SDS011;34625;47.176;27.548;2023-02-22T08:25:08;13.90;;;4.40;;
48805;SDS011;34625;47.176;27.548;2023-02-22T08:27:34;19.23;;;5.07;;
48805;SDS011;34625;47.176;27.548;2023-02-22T08:30:00;21.88;;;5.30;;
48805;SDS011;34625;47.176;27.548;2023-02-22T08:32:26;11.45;;;3.40;;
48805;SDS011;34625;47.176;27.548;2023-02-22T08:34:52;14.48;;;4.72;;
48805;SDS011;34625;47.176;27.548;2023-02-22T08:37:18;7.72;;;2.60;;
48805;SDS011;34625;47.176;27.548;2023-02-22T08:39:44;8.02;;;2.90;;
48805;SDS011;34625;47.176;27.548;2023-02-22T08:42:11;10.05;;;3.78;;
48805;SDS011;34625;47.176;27.548;2023-02-22T08:44:37;6.07;;;2.58;;
48805;SDS011;34625;47.176;27.548;2023-02-22T08:47:04;6.90;;;2.78;;
48805;SDS011;34625;47.176;27.548;2023-02-22T08:49:31;6.55;;;1.42;;
48805;SDS011;34625;47.176;27.548;2023-02-22T08:51:57;8.65;;;2.72;;
48805;SDS011;34625;47.176;27.548;2023-02-22T08:54:24;8.15;;;2.90;;
48805;SDS011;34625;47.176;27.548;2023-02-22T08:56:50;5.00;;;2.50;;
48805;SDS011;34625;47.176;27.548;2023-02-22T08:59:16;8.02;;;2.78;;
48805;SDS011;34625;47.176;27.548;2023-02-22T09:01:42;7.95;;;2.90;;
48805;SDS011;34625;47.176;27.548;2023-02-22T09:04:08;8.80;;;2.75;;
48805;SDS011;34625;47.176;27.548;2023-02-22T09:06:34;7.05;;;2.90;;
48805;SDS011;34625;47.176;27.548;2023-02-22T09:09:00;8.93;;;2.83;;
48805;SDS011;34625;47.176;27.548;2023-02-22T09:11:26;8.38;;;2.55;;
48805;SDS011;34625;47.176;27.548;2023-02-22T09:13:53;8.25;;;3.03;;
48805;SDS011;34625;47.176;27.548;2023-02-22T09:16:19;6.47;;;2.17;;
48805;SDS011;34625;47.176;27.548;2023-02-22T09:18:45;5.80;;;2.60;;
48805;SDS011;34625;47.176;27.548;2023-02-22T09:21:12;7.90;;;3.05;;
48805;SDS011;34625;47.176;27.548;2023-02-22T09:23:38;5.28;;;2.25;;
48805;SDS011;34625;47.176;27.548;2023-02-22T09:26:06;2.47;;;1.80;;
48805;SDS011;34625;47.176;27.548;2023-02-22T09:28:33;5.72;;;2.03;;
48805;SDS011;34625;47.176;27.548;2023-02-22T09:30:58;5.05;;;1.73;;
48805;SDS011;34625;47.176;27.548;2023-02-22T09:33:25;6.60;;;2.47;;
48805;SDS011;34625;47.176;27.548;2023-02-22T09:35:51;4.63;;;2.22;;
48805;SDS011;34625;47.176;27.548;2023-02-22T09:38:18;9.48;;;2.70;;
48805;SDS011;34625;47.176;27.548;2023-02-22T09:44:05;7.18;;;2.92;;
48805;SDS011;34625;47.176;27.548;2023-02-22T09:46:40;9.15;;;3.90;;
48805;SDS011;34625;47.176;27.548;2023-02-22T09:49:33;4.75;;;2.35;;
48805;SDS011;34625;47.176;27.548;2023-02-22T09:52:11;7.35;;;2.78;;
48805;SDS011;34625;47.176;27.548;2023-02-22T09:54:44;3.97;;;1.98;;
48805;SDS011;34625;47.176;27.548;2023-02-22T09:57:41;4.32;;;2.25;;
48805;SDS011;34625;47.176;27.548;2023-02-22T10:05:41;6.18;;;2.72;;
48805;SDS011;34625;47.176;27.548;2023-02-22T10:08:13;5.22;;;1.98;;
48805;SDS011;34625;47.176;27.548;2023-02-22T10:10:44;5.63;;;2.33;;
48805;SDS011;34625;47.176;27.548;2023-02-22T10:21:23;3.97;;;2.03;;
48805;SDS011;34625;47.176;27.548;2023-02-22T10:24:18;4.35;;;1.63;;
48805;SDS011;34625;47.176;27.548;2023-02-22T10:27:41;4.43;;;2.55;;
48805;SDS011;34625;47.176;27.548;2023-02-22T10:30:31;3.10;;;2.08;;
48805;SDS011;34625;47.176;27.548;2023-02-22T10:33:14;3.40;;;1.90;;
48805;SDS011;34625;47.176;27.548;2023-02-22T10:35:44;7.57;;;2.15;;
48805;SDS011;34625;47.176;27.548;2023-02-22T10:38:12;5.72;;;2.00;;
48805;SDS011;34625;47.176;27.548;2023-02-22T10:40:42;1.77;;;1.30;;
48805;SDS011;34625;47.176;27.548;2023-02-22T10:43:27;3.03;;;1.70;;
48805;SDS011;34625;47.176;27.548;2023-02-22T10:45:55;5.95;;;1.42;;
48805;SDS011;34625;47.176;27.548;2023-02-22T10:48:25;2.60;;;1.17;;
48805;SDS011;34625;47.176;27.548;2023-02-22T10:50:57;1.83;;;1.27;;
48805;SDS011;34625;47.176;27.548;2023-02-22T10:53:26;3.17;;;1.85;;
48805;SDS011;34625;47.176;27.548;2023-02-22T10:56:06;3.00;;;2.13;;
48805;SDS011;34625;47.176;27.548;2023-02-22T10:58:45;3.42;;;1.80;;
48805;SDS011;34625;47.176;27.548;2023-02-22T11:01:34;4.93;;;1.80;;
48805;SDS011;34625;47.176;27.548;2023-02-22T11:04:15;6.55;;;2.85;;
48805;SDS011;34625;47.176;27.548;2023-02-22T11:06:48;3.88;;;1.65;;
48805;SDS011;34625;47.176;27.548;2023-02-22T11:09:41;2.88;;;1.63;;
48805;SDS011;34625;47.176;27.548;2023-02-22T11:12:31;4.75;;;1.75;;
48805;SDS011;34625;47.176;27.548;2023-02-22T11:18:03;5.55;;;1.60;;
48805;SDS011;34625;47.176;27.548;2023-02-22T11:20:30;2.15;;;1.45;;
48805;SDS011;34625;47.176;27.548;2023-02-22T11:23:02;1.48;;;1.30;;
48805;SDS011;34625;47.176;27.548;2023-02-22T11:25:33;3.00;;;1.33;;
48805;SDS011;34625;47.176;27.548;2023-02-22T11:28:11;2.28;;;1.23;;
48805;SDS011;34625;47.176;27.548;2023-02-22T11:30:45;2.60;;;1.50;;
48805;SDS011;34625;47.176;27.548;2023-02-22T11:35:57;3.58;;;1.45;;
48805;SDS011;34625;47.176;27.548;2023-02-22T11:38:28;1.83;;;0.93;;
48805;SDS011;34625;47.176;27.548;2023-02-22T11:41:17;2.15;;;1.48;;
48805;SDS011;34625;47.176;27.548;2023-02-22T11:43:48;4.70;;;1.38;;
48805;SDS011;34625;47.176;27.548;2023-02-22T11:46:25;4.63;;;1.33;;
48805;SDS011;34625;47.176;27.548;2023-02-22T11:51:28;0.80;;;0.70;;
48805;SDS011;34625;47.176;27.548;2023-02-22T12:07:39;5.07;;;1.40;;
48805;SDS011;34625;47.176;27.548;2023-02-22T12:10:42;2.28;;;1.02;;
48805;SDS011;34625;47.176;27.548;2023-02-22T12:21:37;3.00;;;1.10;;
48805;SDS011;34625;47.176;27.548;2023-02-22T12:26:39;3.63;;;1.17;;
48805;SDS011;34625;47.176;27.548;2023-02-22T12:34:44;7.63;;;1.92;;
48805;SDS011;34625;47.176;27.548;2023-02-22T12:37:29;3.05;;;1.52;;
48805;SDS011;34625;47.176;27.548;2023-02-22T12:56:45;1.83;;;1.38;;
48805;SDS011;34625;47.176;27.548;2023-02-22T12:59:32;3.63;;;1.00;;
48805;SDS011;34625;47.176;27.548;2023-02-22T13:02:08;3.30;;;1.10;;
48805;SDS011;34625;47.176;27.548;2023-02-22T13:04:53;1.08;;;0.80;;
48805;SDS011;34625;47.176;27.548;2023-02-22T13:10:16;2.75;;;1.10;;
48805;SDS011;34625;47.176;27.548;2023-02-22T13:15:22;2.63;;;1.17;;
48805;SDS011;34625;47.176;27.548;2023-02-22T13:20:54;4.07;;;1.60;;
48805;SDS011;34625;47.176;27.548;2023-02-22T13:23:31;2.15;;;1.38;;
48805;SDS011;34625;47.176;27.548;2023-02-22T13:26:21;2.25;;;1.25;;
48805;SDS011;34625;47.176;27.548;2023-02-22T13:29:03;1.83;;;1.05;;
48805;SDS011;34625;47.176;27.548;2023-02-22T13:34:47;1.48;;;1.02;;
48805;SDS011;34625;47.176;27.548;2023-02-22T13:51:53;11.48;;;5.05;;
48805;SDS011;34625;47.176;27.548;2023-02-22T13:57:03;13.95;;;6.72;;
48805;SDS011;34625;47.176;27.548;2023-02-22T13:59:43;4.82;;;2.97;;
48805;SDS011;34625;47.176;27.548;2023-02-22T14:08:04;4.70;;;2.85;;
48805;SDS011;34625;47.176;27.548;2023-02-22T14:13:20;5.40;;;2.17;;
48805;SDS011;34625;47.176;27.548;2023-02-22T14:18:27;3.75;;;1.83;;
48805;SDS011;34625;47.176;27.548;2023-02-22T14:23:35;3.17;;;2.10;;
48805;SDS011;34625;47.176;27.548;2023-02-22T14:28:47;1.60;;;1.50;;
48805;SDS011;34625;47.176;27.548;2023-02-22T14:31:20;3.42;;;2.45;;
48805;SDS011;34625;47.176;27.548;2023-02-22T14:33:58;5.93;;;2.75;;
48805;SDS011;34625;47.176;27.548;2023-02-22T14:39:04;3.53;;;1.67;;
48805;SDS011;34625;47.176;27.548;2023-02-22T14:41:37;3.10;;;1.77;;
48805;SDS011;34625;47.176;27.548;2023-02-22T14:44:07;3.95;;;1.52;;
48805;SDS011;34625;47.176;27.548;2023-02-22T14:46:38;5.88;;;3.30;;
48805;SDS011;34625;47.176;27.548;2023-02-22T14:49:08;2.42;;;1.70;;
48805;SDS011;34625;47.176;27.548;2023-02-22T14:51:48;3.35;;;1.38;;
48805;SDS011;34625;47.176;27.548;2023-02-22T14:54:20;3.65;;;1.42;;
48805;SDS011;34625;47.176;27.548;2023-02-22T14:57:29;5.50;;;2.47;;
48805;SDS011;34625;47.176;27.548;2023-02-22T15:00:12;5.30;;;2.77;;
48805;SDS011;34625;47.176;27.548;2023-02-22T15:03:26;3.28;;;1.65;;
48805;SDS011;34625;47.176;27.548;2023-02-22T15:06:17;3.88;;;2.60;;
48805;SDS011;34625;47.176;27.548;2023-02-22T15:08:46;15.40;;;5.00;;
48805;SDS011;34625;47.176;27.548;2023-02-22T15:13:51;6.18;;;2.80;;
48805;SDS011;34625;47.176;27.548;2023-02-22T15:16:19;2.85;;;2.00;;
48805;SDS011;34625;47.176;27.548;2023-02-22T15:18:57;3.40;;;1.90;;
48805;SDS011;34625;47.176;27.548;2023-02-22T15:21:26;4.13;;;1.92;;
48805;SDS011;34625;47.176;27.548;2023-02-22T15:24:00;2.67;;;1.98;;
48805;SDS011;34625;47.176;27.548;2023-02-22T15:26:30;6.00;;;2.63;;
48805;SDS011;34625;47.176;27.548;2023-02-22T15:29:00;4.07;;;2.10;;
48805;SDS011;34625;47.176;27.548;2023-02-22T15:31:33;6.10;;;3.58;;
48805;SDS011;34625;47.176;27.548;2023-02-22T15:36:40;5.43;;;2.70;;
48805;SDS011;34625;47.176;27.548;2023-02-22T15:39:24;4.88;;;2.83;;
48805;SDS011;34625;47.176;27.548;2023-02-22T15:44:36;11.15;;;4.57;;
48805;SDS011;34625;47.176;27.548;2023-02-22T15:47:04;5.72;;;2.60;;
48805;SDS011;34625;47.176;27.548;2023-02-22T15:49:31;5.53;;;2.15;;
48805;SDS011;34625;47.176;27.548;2023-02-22T15:52:03;6.68;;;3.20;;
48805;SDS011;34625;47.176;27.548;2023-02-22T15:54:39;23.13;;;9.43;;
48805;SDS011;34625;47.176;27.548;2023-02-22T15:57:07;15.45;;;5.95;;
48805;SDS011;34625;47.176;27.548;2023-02-22T15:59:38;17.15;;;6.97;;
48805;SDS011;34625;47.176;27.548;2023-02-22T16:02:17;10.18;;;3.80;;
48805;SDS011;34625;47.176;27.548;2023-02-22T16:05:12;12.75;;;5.63;;
48805;SDS011;34625;47.176;27.548;2023-02-22T16:07:49;16.63;;;7.50;;
48805;SDS011;34625;47.176;27.548;2023-02-22T16:10:36;20.27;;;7.80;;
48805;SDS011;34625;47.176;27.548;2023-02-22T16:13:06;15.95;;;7.50;;
48805;SDS011;34625;47.176;27.548;2023-02-22T16:15:33;9.32;;;5.47;;
48805;SDS011;34625;47.176;27.548;2023-02-22T16:20:58;13.23;;;6.97;;
48805;SDS011;34625;47.176;27.548;2023-02-22T16:23:27;9.05;;;4.45;;
48805;SDS011;34625;47.176;27.548;2023-02-22T16:26:04;9.70;;;4.68;;
48805;SDS011;34625;47.176;27.548;2023-02-22T16:28:32;10.52;;;5.60;;
48805;SDS011;34625;47.176;27.548;2023-02-22T16:30:59;6.80;;;4.43;;
48805;SDS011;34625;47.176;27.548;2023-02-22T16:33:26;8.63;;;5.45;;
48805;SDS011;34625;47.176;27.548;2023-02-22T16:36:00;8.60;;;4.63;;
48805;SDS011;34625;47.176;27.548;2023-02-22T16:38:30;9.00;;;4.97;;
48805;SDS011;34625;47.176;27.548;2023-02-22T16:40:58;7.25;;;4.28;;
48805;SDS011;34625;47.176;27.548;2023-02-22T16:43:25;11.30;;;4.50;;
48805;SDS011;34625;47.176;27.548;2023-02-22T16:45:54;5.43;;;3.13;;
48805;SDS011;34625;47.176;27.548;2023-02-22T16:48:24;6.18;;;4.05;;
48805;SDS011;34625;47.176;27.548;2023-02-22T16:50:52;7.35;;;4.93;;
48805;SDS011;34625;47.176;27.548;2023-02-22T16:53:23;8.68;;;5.22;;
48805;SDS011;34625;47.176;27.548;2023-02-22T16:55:51;7.07;;;4.68;;
48805;SDS011;34625;47.176;27.548;2023-02-22T16:58:22;8.00;;;4.32;;
48805;SDS011;34625;47.176;27.548;2023-02-22T17:00:52;8.95;;;4.10;;
48805;SDS011;34625;47.176;27.548;2023-02-22T17:03:21;10.65;;;4.63;;
48805;SDS011;34625;47.176;27.548;2023-02-22T17:05:49;7.15;;;4.35;;
48805;SDS011;34625;47.176;27.548;2023-02-22T17:08:15;9.45;;;4.55;;
48805;SDS011;34625;47.176;27.548;2023-02-22T17:10:41;8.88;;;4.93;;
48805;SDS011;34625;47.176;27.548;2023-02-22T17:13:08;13.70;;;5.38;;
48805;SDS011;34625;47.176;27.548;2023-02-22T17:15:34;11.93;;;5.68;;
48805;SDS011;34625;47.176;27.548;2023-02-22T17:18:01;8.40;;;5.10;;
48805;SDS011;34625;47.176;27.548;2023-02-22T17:20:35;17.73;;;8.07;;
48805;SDS011;34625;47.176;27.548;2023-02-22T17:23:02;24.10;;;10.80;;
48805;SDS011;34625;47.176;27.548;2023-02-22T17:28:18;17.23;;;6.72;;
48805;SDS011;34625;47.176;27.548;2023-02-22T17:30:44;21.75;;;7.05;;
48805;SDS011;34625;47.176;27.548;2023-02-22T17:33:20;16.23;;;6.18;;
48805;SDS011;34625;47.176;27.548;2023-02-22T17:35:51;11.98;;;5.63;;
48805;SDS011;34625;47.176;27.548;2023-02-22T17:38:19;31.23;;;10.73;;
48805;SDS011;34625;47.176;27.548;2023-02-22T17:40:45;25.33;;;10.60;;
48805;SDS011;34625;47.176;27.548;2023-02-22T17:43:19;19.65;;;11.80;;
48805;SDS011;34625;47.176;27.548;2023-02-22T17:45:45;22.63;;;13.43;;